createdAt,value
2023-04-16T00:02:19.138Z,99666.94
2023-04-16T00:04:46.012Z,99660.22
2023-04-16T00:07:12.715Z,99662.16
2023-04-16T00:09:41.719Z,99658.84
2023-04-16T00:12:08.788Z,99662.16
2023-04-16T00:14:35.406Z,99669.94
2023-04-16T00:17:01.990Z,99666.25
2023-04-16T00:19:28.607Z,99665.97
2023-04-16T00:21:55.228Z,99667.91
2023-04-16T00:24:24.129Z,99671.47
2023-04-16T00:26:50.762Z,99668.66
2023-04-16T00:29:19.676Z,99669.88
2023-04-16T00:31:46.252Z,99661.50
2023-04-16T00:34:12.799Z,99667.56
2023-04-16T00:36:41.848Z,99670.09
2023-04-16T00:39:08.653Z,99667.44
2023-04-16T00:41:35.461Z,99670.13
2023-04-16T00:44:02.054Z,99667.59
2023-04-16T00:46:31.491Z,99669.94
2023-04-16T00:49:03.071Z,99667.84
2023-04-16T00:51:32.525Z,99664.25
2023-04-16T00:53:59.110Z,99664.19
2023-04-16T00:56:25.703Z,99658.94
2023-04-16T00:58:52.274Z,99655.25
2023-04-16T01:01:18.874Z,99664.03
2023-04-16T01:03:47.559Z,99658.88
2023-04-16T01:06:17.059Z,99662.53
2023-04-16T01:08:43.857Z,99662.47
2023-04-16T01:11:12.087Z,99671.19
2023-04-16T01:13:41.417Z,99676.09
2023-04-16T01:16:11.658Z,99673.41
2023-04-16T01:18:41.087Z,99682.94
2023-04-16T01:21:10.130Z,99670.06
2023-04-16T01:23:36.823Z,99682.63
2023-04-16T01:26:03.475Z,99676.09
2023-04-16T01:28:30.110Z,99677.94
2023-04-16T01:30:56.749Z,99684.72
2023-04-16T01:33:23.382Z,99677.66
2023-04-16T01:35:49.967Z,99683.63
2023-04-16T01:38:16.740Z,99679.13
2023-04-16T01:40:45.510Z,99672.91
2023-04-16T01:43:12.067Z,99679.22
2023-04-16T01:45:38.615Z,99678.56
2023-04-16T01:48:07.669Z,99686.25
2023-04-16T01:50:37.470Z,99683.06
2023-04-16T01:53:05.212Z,99683.53
2023-04-16T01:55:36.284Z,99687.69
2023-04-16T01:58:02.959Z,99684.03
2023-04-16T02:00:29.588Z,99676.38
2023-04-16T02:02:56.420Z,99669.38
2023-04-16T02:05:25.923Z,99676.44
2023-04-16T02:07:55.005Z,99677.44
2023-04-16T02:10:22.149Z,99676.09
2023-04-16T02:12:48.832Z,99688.59
2023-04-16T02:15:17.753Z,99695.00
2023-04-16T02:17:48.711Z,99698.53
2023-04-16T02:20:15.713Z,99693.38
2023-04-16T02:22:43.418Z,99694.75
2023-04-16T02:25:10.012Z,99697.28
2023-04-16T02:27:36.770Z,99702.16
2023-04-16T02:30:04.353Z,99699.81
2023-04-16T02:32:31.181Z,99699.34
2023-04-16T02:34:57.775Z,99703.28
2023-04-16T02:37:25.935Z,99702.56
2023-04-16T02:39:53.327Z,99696.47
2023-04-16T02:42:19.877Z,99686.97
2023-04-16T02:44:46.461Z,99684.22
2023-04-16T02:47:12.998Z,99673.25
2023-04-16T02:49:39.572Z,99685.09
2023-04-16T02:52:06.205Z,99681.66
2023-04-16T02:54:32.818Z,99682.47
2023-04-16T02:57:02.433Z,99692.75
2023-04-16T02:59:29.043Z,99691.47
2023-04-16T03:01:55.672Z,99693.00
2023-04-16T03:04:24.683Z,99696.44
2023-04-16T03:06:56.302Z,99698.00
2023-04-16T03:09:22.861Z,99704.72
2023-04-16T03:11:49.425Z,99698.34
2023-04-16T03:14:15.989Z,99701.75
2023-04-16T03:16:44.792Z,99693.13
2023-04-16T03:19:13.745Z,99690.44
2023-04-16T03:21:45.349Z,99695.97
2023-04-16T03:24:11.924Z,99709.94
2023-04-16T03:26:38.499Z,99710.09
2023-04-16T03:29:05.460Z,99706.78
2023-04-16T03:31:36.936Z,99729.09
2023-04-16T03:34:05.702Z,99728.88
2023-04-16T03:36:34.581Z,99731.34
2023-04-16T03:39:03.664Z,99733.88
2023-04-16T03:41:30.220Z,99733.53
2023-04-16T03:43:56.781Z,99739.22
2023-04-16T03:46:25.858Z,99742.66
2023-04-16T03:48:54.783Z,99749.09
2023-04-16T03:51:21.459Z,99756.06
2023-04-16T03:53:48.006Z,99765.22
2023-04-16T03:56:17.043Z,99763.06
2023-04-16T03:58:46.614Z,99764.41
2023-04-16T04:01:18.449Z,99764.13
2023-04-16T04:03:47.481Z,99756.72
2023-04-16T04:06:18.970Z,99754.44
2023-04-16T04:08:48.041Z,99751.56
2023-04-16T04:11:14.663Z,99756.13
2023-04-16T04:13:41.265Z,99752.09
2023-04-16T04:16:11.244Z,99753.59
2023-04-16T04:18:37.832Z,99747.50
2023-04-16T04:21:08.573Z,99746.00
2023-04-16T04:23:38.260Z,99750.22
2023-04-16T04:26:05.830Z,99754.84
2023-04-16T04:28:35.550Z,99765.41
2023-04-16T04:31:02.348Z,99767.13
2023-04-16T04:33:28.981Z,99773.38
2023-04-16T04:35:55.824Z,99778.28
2023-04-16T04:38:25.286Z,99781.44
2023-04-16T04:40:53.012Z,99776.44
2023-04-16T04:43:25.088Z,99777.94
2023-04-16T04:45:51.705Z,99786.78
2023-04-16T04:48:18.352Z,99777.13
2023-04-16T04:50:45.602Z,99776.84
2023-04-16T04:53:12.717Z,99784.59
2023-04-16T04:55:40.000Z,99780.47
2023-04-16T04:58:07.325Z,99777.69
2023-04-16T05:00:37.657Z,99785.34
2023-04-16T05:03:11.283Z,99780.94
2023-04-16T05:05:41.935Z,99786.72
2023-04-16T05:08:08.558Z,99795.50
2023-04-16T05:10:35.172Z,99794.56
2023-04-16T05:13:06.284Z,99787.09
2023-04-16T05:15:32.834Z,99788.81
2023-04-16T05:18:02.469Z,99784.91
2023-04-16T05:20:29.070Z,99780.41
2023-04-16T05:22:57.865Z,99788.31
2023-04-16T05:25:26.790Z,99790.13
2023-04-16T05:27:53.357Z,99795.16
2023-04-16T05:30:20.621Z,99809.16
2023-04-16T05:32:50.378Z,99809.63
2023-04-16T05:35:21.936Z,99805.28
2023-04-16T05:37:48.536Z,99811.47
2023-04-16T05:40:19.848Z,99816.81
2023-04-16T05:42:46.451Z,99813.72
2023-04-16T05:45:13.122Z,99811.94
2023-04-16T05:47:39.807Z,99813.56
2023-04-16T05:50:06.978Z,99807.75
2023-04-16T05:52:33.582Z,99809.66
2023-04-16T05:55:03.558Z,99817.34
2023-04-16T05:57:30.423Z,99820.06
2023-04-16T05:59:57.034Z,99822.63
2023-04-16T06:02:23.716Z,99821.63
2023-04-16T06:04:50.446Z,99818.19
2023-04-16T06:07:16.997Z,99830.13
2023-04-16T06:09:45.849Z,99829.03
2023-04-16T06:12:12.622Z,99832.63
2023-04-16T06:14:39.224Z,99838.50
2023-04-16T06:17:05.859Z,99834.59
2023-04-16T06:19:32.433Z,99830.38
2023-04-16T06:22:01.459Z,99827.22
2023-04-16T06:24:30.560Z,99827.63
2023-04-16T06:30:44.625Z,99826.34
2023-04-16T06:33:13.603Z,99828.66
2023-04-16T06:35:42.542Z,99837.81
2023-04-16T06:38:09.089Z,99830.19
2023-04-16T06:40:37.573Z,99830.94
2023-04-16T06:43:11.459Z,99828.47
2023-04-16T06:45:38.103Z,99828.16
2023-04-16T06:48:05.469Z,99819.03
2023-04-16T06:50:32.161Z,99826.13
2023-04-16T06:52:58.736Z,99827.16
2023-04-16T06:55:27.746Z,99824.28
2023-04-16T06:57:56.484Z,99825.53
2023-04-16T07:00:25.104Z,99823.28
2023-04-16T07:02:51.787Z,99822.41
2023-04-16T07:05:23.970Z,99831.63
2023-04-16T07:07:52.774Z,99829.94
2023-04-16T07:10:22.142Z,99836.63
2023-04-16T07:12:48.756Z,99840.28
2023-04-16T07:15:15.351Z,99837.13
2023-04-16T07:17:41.942Z,99831.38
2023-04-16T07:20:09.144Z,99828.06
2023-04-16T07:22:35.936Z,99820.75
2023-04-16T07:25:05.014Z,99832.09
2023-04-16T07:27:31.578Z,99831.34
2023-04-16T07:30:00.405Z,99831.03
2023-04-16T07:32:27.047Z,99829.31
2023-04-16T07:34:53.654Z,99831.47
2023-04-16T07:37:23.198Z,99839.56
2023-04-16T07:39:49.786Z,99822.22
2023-04-16T07:42:16.355Z,99830.19
2023-04-16T07:44:45.063Z,99828.34
2023-04-16T07:47:13.692Z,99819.88
2023-04-16T07:49:40.282Z,99826.78
2023-04-16T07:52:09.047Z,99842.16
2023-04-16T07:54:40.597Z,99827.56
2023-04-16T07:57:07.186Z,99837.16
2023-04-16T07:59:33.746Z,99830.41
2023-04-16T08:02:02.512Z,99843.34
2023-04-16T08:04:29.399Z,99840.75
2023-04-16T08:07:00.847Z,99834.00
2023-04-16T08:09:30.238Z,99835.22
2023-04-16T08:11:56.938Z,99831.19
2023-04-16T08:14:25.741Z,99834.03
2023-04-16T08:19:45.730Z,99841.22
2023-04-16T08:22:17.600Z,99846.53
2023-04-16T08:24:48.998Z,99843.06
2023-04-16T08:27:19.581Z,99844.09
2023-04-16T08:29:47.660Z,99845.19
2023-04-16T08:32:14.270Z,99842.03
2023-04-16T08:34:42.034Z,99839.59
2023-04-16T08:37:08.798Z,99848.22
2023-04-16T08:39:37.763Z,99848.28
2023-04-16T08:42:06.403Z,99860.03
2023-04-16T08:44:39.100Z,99852.47
2023-04-16T08:47:07.716Z,99866.19
2023-04-16T08:53:26.324Z,99859.25
2023-04-16T08:55:58.111Z,99856.84
2023-04-16T08:58:35.669Z,99861.16
2023-04-16T09:01:06.203Z,99861.41
2023-04-16T09:03:36.434Z,99867.50
2023-04-16T09:06:09.848Z,99867.59
2023-04-16T09:08:38.176Z,99865.00
2023-04-16T09:11:05.448Z,99867.69
2023-04-16T09:13:32.419Z,99866.88
2023-04-16T09:16:04.081Z,99872.91
2023-04-16T09:18:31.288Z,99873.84
2023-04-16T09:20:57.927Z,99876.53
2023-04-16T09:23:26.965Z,99882.63
2023-04-16T09:25:56.580Z,99883.31
2023-04-16T09:28:42.820Z,99891.16
2023-04-16T09:31:19.532Z,99892.94
2023-04-16T09:34:01.462Z,99892.88
2023-04-16T09:36:28.214Z,99890.25
2023-04-16T09:38:57.618Z,99888.50
2023-04-16T09:41:29.032Z,99896.31
2023-04-16T09:43:57.640Z,99898.88
2023-04-16T09:46:29.600Z,99893.88
2023-04-16T09:48:58.682Z,99896.31
2023-04-16T09:51:27.080Z,99892.06
2023-04-16T09:53:56.707Z,99895.44
2023-04-16T09:56:31.121Z,99893.75
2023-04-16T09:59:02.383Z,99896.25
2023-04-16T10:01:30.937Z,99891.19
2023-04-16T10:03:59.766Z,99894.69
2023-04-16T10:06:34.002Z,99888.13
2023-04-16T10:09:00.646Z,99888.25
2023-04-16T10:11:29.760Z,99882.16
2023-04-16T10:13:58.817Z,99883.78
2023-04-16T10:16:28.982Z,99882.13
2023-04-16T10:18:56.711Z,99874.41
2023-04-16T10:21:23.992Z,99869.25
2023-04-16T10:23:52.101Z,99869.19
2023-04-16T10:26:18.704Z,99870.06
2023-04-16T10:28:45.605Z,99862.38
2023-04-16T10:31:12.791Z,99870.16
2023-04-16T10:33:44.260Z,99862.34
2023-04-16T10:36:13.346Z,99864.09
2023-04-16T10:38:42.178Z,99858.94
2023-04-16T10:41:09.570Z,99856.38
2023-04-16T10:43:47.305Z,99851.19
2023-04-16T10:46:32.731Z,99845.13
2023-04-16T10:49:16.288Z,99849.41
2023-04-16T10:51:42.884Z,99841.59
2023-04-16T10:54:12.617Z,99836.47
2023-04-16T10:56:39.158Z,99838.22
2023-04-16T10:59:07.783Z,99842.53
2023-04-16T11:01:36.148Z,99840.75
2023-04-16T11:04:23.966Z,99841.44
2023-04-16T11:07:07.907Z,99836.22
2023-04-16T11:09:59.760Z,99832.69
2023-04-16T11:12:29.765Z,99824.81
2023-04-16T11:15:08.341Z,99830.88
2023-04-16T11:17:43.597Z,99837.78
2023-04-16T11:20:20.063Z,99842.25
2023-04-16T11:22:57.554Z,99833.47
2023-04-16T11:25:31.607Z,99825.81
2023-04-16T11:28:01.408Z,99832.78
2023-04-16T11:30:30.417Z,99836.09
2023-04-16T11:33:02.059Z,99831.81
2023-04-16T11:35:28.760Z,99837.94
2023-04-16T11:38:01.572Z,99829.69
2023-04-16T11:40:31.756Z,99824.63
2023-04-16T11:43:03.154Z,99839.72
2023-04-16T11:45:31.879Z,99832.09
2023-04-16T11:48:00.618Z,99833.03
2023-04-16T11:50:28.730Z,99834.69
2023-04-16T11:52:58.076Z,99839.03
2023-04-16T11:55:24.831Z,99830.41
2023-04-16T11:57:52.155Z,99830.41
2023-04-16T12:00:23.668Z,99825.16
2023-04-16T12:02:56.151Z,99830.34
2023-04-16T12:05:30.849Z,99825.09
2023-04-16T12:08:01.337Z,99825.78
2023-04-16T12:10:28.705Z,99818.66
2023-04-16T12:13:09.577Z,99815.25
2023-04-16T12:15:49.280Z,99810.16
2023-04-16T12:18:26.838Z,99811.97
2023-04-16T12:20:56.140Z,99812.84
2023-04-16T12:23:33.038Z,99810.00
2023-04-16T12:26:10.425Z,99802.91
2023-04-16T12:28:42.134Z,99800.03
2023-04-16T12:31:11.208Z,99800.97
2023-04-16T12:33:40.040Z,99805.28
2023-04-16T12:36:24.693Z,99800.78
2023-04-16T12:38:51.294Z,99794.84
2023-04-16T12:41:17.904Z,99796.38
2023-04-16T12:43:44.486Z,99799.16
2023-04-16T12:46:11.117Z,99791.41
2023-04-16T12:48:37.952Z,99794.63
2023-04-16T12:51:07.619Z,99795.38
2023-04-16T12:53:35.148Z,99792.88
2023-04-16T12:56:04.513Z,99793.97
2023-04-16T12:58:31.086Z,99788.69
2023-04-16T13:01:00.352Z,99786.97
2023-04-16T13:03:28.801Z,99792.13
2023-04-16T13:05:57.025Z,99788.53
2023-04-16T13:08:23.694Z,99779.66
2023-04-16T13:10:50.321Z,99779.56
2023-04-16T13:13:19.937Z,99771.47
2023-04-16T13:15:48.864Z,99768.06
2023-04-16T13:18:15.529Z,99767.00
2023-04-16T13:20:44.545Z,99768.84
2023-04-16T13:23:16.625Z,99773.38
2023-04-16T13:25:43.223Z,99770.69
2023-04-16T13:28:09.965Z,99769.13
2023-04-16T13:30:36.873Z,99768.59
2023-04-16T13:33:06.092Z,99767.78
2023-04-16T13:35:35.476Z,99761.38
2023-04-16T13:38:07.373Z,99766.78
2023-04-16T13:40:36.299Z,99763.22
2023-04-16T13:43:02.818Z,99763.91
2023-04-16T13:45:29.444Z,99757.81
2023-04-16T13:47:56.504Z,99754.28
2023-04-16T13:50:23.585Z,99751.84
2023-04-16T13:52:50.298Z,99754.22
2023-04-16T13:55:19.514Z,99748.25
2023-04-16T13:57:47.836Z,99752.50
2023-04-16T14:00:17.317Z,99754.19
2023-04-16T14:02:46.420Z,99757.91
2023-04-16T14:05:16.137Z,99759.88
2023-04-16T14:07:45.625Z,99750.44
2023-04-16T14:10:14.586Z,99744.53
2023-04-16T14:12:43.791Z,99746.25
2023-04-16T14:15:14.786Z,99754.81
2023-04-16T14:17:46.112Z,99753.13
2023-04-16T14:20:14.205Z,99747.06
2023-04-16T14:22:43.949Z,99748.75
2023-04-16T14:25:10.613Z,99753.00
2023-04-16T14:27:37.314Z,99749.72
2023-04-16T14:30:09.732Z,99742.69
2023-04-16T14:32:38.556Z,99740.09
2023-04-16T14:35:08.370Z,99743.63
2023-04-16T14:37:36.307Z,99746.25
2023-04-16T14:40:08.994Z,99744.38
2023-04-16T14:42:40.486Z,99732.31
2023-04-16T14:45:08.214Z,99744.53
2023-04-16T14:47:45.810Z,99733.38
2023-04-16T14:50:15.656Z,99734.28
2023-04-16T14:52:44.920Z,99735.91
2023-04-16T14:55:11.579Z,99739.41
2023-04-16T14:57:39.135Z,99742.72
2023-04-16T15:00:12.028Z,99733.22
2023-04-16T15:02:41.146Z,99731.47
2023-04-16T15:05:10.591Z,99734.13
2023-04-16T15:07:42.156Z,99735.75
2023-04-16T15:10:09.542Z,99727.16
2023-04-16T15:12:36.347Z,99725.34
2023-04-16T15:15:03.150Z,99728.78
2023-04-16T15:17:34.824Z,99724.56
2023-04-16T15:20:01.691Z,99724.41
2023-04-16T15:22:30.684Z,99728.69
2023-04-16T15:24:59.694Z,99728.78
2023-04-16T15:27:26.593Z,99724.38
2023-04-16T15:29:55.754Z,99722.69
2023-04-16T15:32:22.804Z,99723.41
2023-04-16T15:34:51.728Z,99725.06
2023-04-16T15:37:18.222Z,99724.97
2023-04-16T15:39:44.840Z,99728.31
2023-04-16T15:42:11.896Z,99732.47
2023-04-16T15:44:41.206Z,99734.22
2023-04-16T15:47:08.783Z,99727.94
2023-04-16T15:49:36.119Z,99723.78
2023-04-16T15:52:02.874Z,99725.69
2023-04-16T15:54:30.854Z,99731.88
2023-04-16T15:57:00.029Z,99728.69
2023-04-16T15:59:27.017Z,99733.09
2023-04-16T16:01:56.558Z,99727.06
2023-04-16T16:04:26.759Z,99728.59
2023-04-16T16:06:56.673Z,99744.31
2023-04-16T16:09:26.494Z,99737.50
2023-04-16T16:11:57.890Z,99739.16
2023-04-16T16:14:26.903Z,99734.94
2023-04-16T16:16:53.534Z,99746.13
2023-04-16T16:19:20.468Z,99735.00
2023-04-16T16:21:49.464Z,99735.06
2023-04-16T16:24:15.966Z,99742.78
2023-04-16T16:26:45.114Z,99741.09
2023-04-16T16:29:14.210Z,99737.69
2023-04-16T16:31:40.852Z,99734.19
2023-04-16T16:34:07.750Z,99732.53
2023-04-16T16:36:36.903Z,99739.28
2023-04-16T16:39:04.316Z,99735.00
2023-04-16T16:41:31.158Z,99735.81
2023-04-16T16:44:00.343Z,99734.28
2023-04-16T16:46:31.664Z,99739.38
2023-04-16T16:49:00.593Z,99740.16
2023-04-16T16:51:27.755Z,99739.34
2023-04-16T16:53:56.934Z,99739.31
2023-04-16T16:56:23.498Z,99744.63
2023-04-16T16:58:50.131Z,99743.00
2023-04-16T17:01:17.677Z,99739.44
2023-04-16T17:03:44.490Z,99750.72
2023-04-16T17:06:11.915Z,99744.91
2023-04-16T17:08:38.695Z,99753.50
2023-04-16T17:11:07.975Z,99754.38
2023-04-16T17:13:36.748Z,99756.16
2023-04-16T17:16:03.350Z,99751.00
2023-04-16T17:18:32.530Z,99758.75
2023-04-16T17:21:03.907Z,99767.41
2023-04-16T17:23:32.961Z,99763.91
2023-04-16T17:26:00.005Z,99760.53
2023-04-16T17:28:27.130Z,99764.88
2023-04-16T17:30:56.999Z,99764.03
2023-04-16T17:33:23.656Z,99769.25
2023-04-16T17:35:50.500Z,99770.97
2023-04-16T17:38:17.059Z,99774.44
2023-04-16T17:40:43.710Z,99772.66
2023-04-16T17:43:10.358Z,99776.97
2023-04-16T17:45:36.929Z,99772.69
2023-04-16T17:48:06.408Z,99774.44
2023-04-16T17:50:33.533Z,99778.78
2023-04-16T17:53:03.711Z,99779.66
2023-04-16T17:55:34.133Z,99777.94
2023-04-16T17:58:02.688Z,99778.78
2023-04-16T18:00:33.813Z,99772.78
2023-04-16T18:03:02.895Z,99776.25
2023-04-16T18:05:30.536Z,99779.66
2023-04-16T18:07:58.047Z,99790.00
2023-04-16T18:10:24.687Z,99782.25
2023-04-16T18:12:53.629Z,99794.34
2023-04-16T18:15:20.200Z,99789.16
2023-04-16T18:17:50.355Z,99790.88
2023-04-16T18:20:19.455Z,99794.31
2023-04-16T18:22:48.328Z,99795.19
2023-04-16T18:25:16.130Z,99807.25
2023-04-16T18:27:42.882Z,99812.41
2023-04-16T18:30:18.912Z,99815.00
2023-04-16T18:33:16.687Z,99816.72
2023-04-16T18:35:36.589Z,99815.81
2023-04-16T18:38:05.697Z,99821.00
2023-04-16T18:40:40.725Z,99814.09
2023-04-16T18:43:09.497Z,99802.94
2023-04-16T18:45:36.342Z,99800.31
2023-04-16T18:48:05.396Z,99793.47
2023-04-16T18:50:36.848Z,99792.59
2023-04-16T18:53:06.127Z,99795.16
2023-04-16T18:55:32.799Z,99784.84
2023-04-16T18:57:59.369Z,99790.00
2023-04-16T19:00:28.454Z,99789.13
2023-04-16T19:02:55.401Z,99780.53
2023-04-16T19:05:24.306Z,99771.91
2023-04-16T19:07:53.415Z,99777.09
2023-04-16T19:10:20.195Z,99777.09
2023-04-16T19:12:47.639Z,99774.53
2023-04-16T19:15:16.832Z,99777.09
2023-04-16T19:17:46.785Z,99774.50
2023-04-16T19:20:13.890Z,99769.34
2023-04-16T19:22:45.094Z,99772.78
2023-04-16T19:25:11.737Z,99772.78
2023-04-16T19:27:38.751Z,99765.91
2023-04-16T19:30:07.470Z,99765.91
2023-04-16T19:32:39.098Z,99774.50
2023-04-16T19:35:08.738Z,99783.13
2023-04-16T19:37:35.440Z,99783.13
2023-04-16T19:40:02.122Z,99789.16
2023-04-16T19:42:31.531Z,99784.00
2023-04-16T19:45:01.026Z,99792.59
2023-04-16T19:47:30.136Z,99780.53
2023-04-16T19:49:56.749Z,99775.34
2023-04-16T19:52:23.372Z,99774.47
2023-04-16T19:54:52.311Z,99774.50
2023-04-16T19:57:23.771Z,99774.47
2023-04-16T19:59:50.611Z,99778.81
2023-04-16T20:02:22.222Z,99778.78
2023-04-16T20:04:48.966Z,99776.22
2023-04-16T20:07:20.090Z,99767.63
2023-04-16T20:09:46.670Z,99776.22
2023-04-16T20:12:15.622Z,99775.38
2023-04-16T20:14:43.919Z,99766.75
2023-04-16T20:17:11.030Z,99763.31
2023-04-16T20:19:40.046Z,99769.31
2023-04-16T20:22:09.597Z,99760.72
2023-04-16T20:24:41.633Z,99760.72
2023-04-16T20:27:08.251Z,99759.88
2023-04-16T20:29:39.436Z,99763.31
2023-04-16T20:32:10.985Z,99767.63
2023-04-16T20:34:38.567Z,99769.31
2023-04-16T20:37:07.656Z,99764.16
2023-04-16T20:39:36.770Z,99771.94
2023-04-16T20:42:10.309Z,99765.03
2023-04-16T20:44:40.746Z,99765.88
2023-04-16T20:47:15.362Z,99760.75
2023-04-16T20:49:46.624Z,99762.44
2023-04-16T20:52:16.611Z,99756.44
2023-04-16T20:54:45.723Z,99756.44
2023-04-16T20:57:14.405Z,99745.22
2023-04-16T20:59:41.051Z,99752.97
2023-04-16T21:02:08.025Z,99743.50
2023-04-16T21:04:35.104Z,99748.66
2023-04-16T21:07:04.445Z,99748.69
2023-04-16T21:09:31.646Z,99752.13
2023-04-16T21:11:58.361Z,99752.13
2023-04-16T21:14:24.986Z,99753.84
2023-04-16T21:16:51.576Z,99759.88
2023-04-16T21:19:22.738Z,99759.00
2023-04-16T21:21:49.394Z,99754.69
2023-04-16T21:24:20.537Z,99758.16
2023-04-16T21:26:52.418Z,99752.13
2023-04-16T21:29:19.045Z,99759.00
2023-04-16T21:31:46.004Z,99746.94
2023-04-16T21:34:15.178Z,99740.91
2023-04-16T21:36:44.886Z,99736.59
2023-04-16T21:39:16.034Z,99738.31
2023-04-16T21:41:49.618Z,99734.88
2023-04-16T21:44:21.186Z,99740.03
2023-04-16T21:46:47.800Z,99739.19
2023-04-16T21:49:14.384Z,99747.81
2023-04-16T21:51:46.095Z,99746.94
2023-04-16T21:54:12.930Z,99741.78
2023-04-16T21:56:44.308Z,99746.94
2023-04-16T21:59:13.471Z,99733.19
2023-04-16T22:01:42.802Z,99736.59
2023-04-16T22:04:10.209Z,99734.88
2023-04-16T22:06:36.927Z,99734.88
2023-04-16T22:09:09.500Z,99726.31
2023-04-16T22:11:36.666Z,99733.16
2023-04-16T22:14:08.269Z,99728.00
2023-04-16T22:16:37.030Z,99730.59
2023-04-16T22:19:03.666Z,99723.69
2023-04-16T22:21:31.426Z,99720.28
2023-04-16T22:24:00.341Z,99727.13
2023-04-16T22:26:29.449Z,99720.25
2023-04-16T22:28:56.511Z,99718.53
2023-04-16T22:31:28.402Z,99720.25
2023-04-16T22:33:55.031Z,99715.94
2023-04-16T22:36:24.132Z,99715.09
2023-04-16T22:38:50.704Z,99709.94
2023-04-16T22:41:23.157Z,99712.53
2023-04-16T22:43:52.292Z,99714.25
2023-04-16T22:46:22.506Z,99716.81
2023-04-16T22:48:49.126Z,99713.34
2023-04-16T22:51:18.409Z,99713.31
2023-04-16T22:53:47.823Z,99711.63
2023-04-16T22:56:16.766Z,99704.72
2023-04-16T22:58:45.671Z,99705.59
2023-04-16T23:01:16.122Z,99705.59
2023-04-16T23:03:45.141Z,99708.16
2023-04-16T23:06:11.829Z,99701.25
2023-04-16T23:08:38.555Z,99699.53
2023-04-16T23:11:07.448Z,99698.69
2023-04-16T23:13:36.563Z,99691.81
2023-04-16T23:16:05.715Z,99696.13
2023-04-16T23:18:32.387Z,99690.09
2023-04-16T23:20:58.949Z,99687.50
2023-04-16T23:23:28.382Z,99688.38
2023-04-16T23:25:57.159Z,99681.47
2023-04-16T23:28:23.721Z,99676.31
2023-04-16T23:30:55.760Z,99679.75
2023-04-16T23:33:24.695Z,99677.19
2023-04-16T23:35:51.262Z,99679.75
2023-04-16T23:38:22.636Z,99674.59
2023-04-16T23:40:49.232Z,99671.16
2023-04-16T23:43:18.071Z,99677.19
2023-04-16T23:45:47.159Z,99670.28
2023-04-16T23:48:13.820Z,99672.00
2023-04-16T23:50:43.318Z,99669.44
2023-04-16T23:53:12.230Z,99669.44
2023-04-16T23:55:38.753Z,99665.13
2023-04-16T23:58:08.557Z,99657.38
